createdAt,value
2018-05-11T00:00:48.548Z,10.05
2018-05-11T00:03:16.101Z,16.58
2018-05-11T00:05:43.804Z,18.50
2018-05-11T00:08:11.424Z,11.57
2018-05-11T00:10:38.961Z,12.30
2018-05-11T00:13:06.540Z,13.60
2018-05-11T00:15:34.097Z,14.32
2018-05-11T00:18:01.645Z,13.10
2018-05-11T00:20:29.208Z,17.87
2018-05-11T00:22:56.736Z,17.10
2018-05-11T00:25:24.253Z,17.12
2018-05-11T00:27:52.040Z,9.30
2018-05-11T00:30:19.573Z,16.58
2018-05-11T00:32:47.101Z,11.30
2018-05-11T00:35:14.980Z,16.35
2018-05-11T00:37:42.513Z,14.98
2018-05-11T00:40:10.036Z,14.63
2018-05-11T00:42:38.120Z,12.45
2018-05-11T00:45:05.640Z,14.02
2018-05-11T00:47:33.157Z,12.75
2018-05-11T00:50:00.713Z,19.52
2018-05-11T00:52:28.248Z,16.27
2018-05-11T00:54:55.801Z,18.58
2018-05-11T00:57:23.467Z,11.38
2018-05-11T00:59:50.981Z,12.23
2018-05-11T01:02:18.512Z,12.55
2018-05-11T01:04:46.877Z,11.98
2018-05-11T01:07:14.332Z,14.48
2018-05-11T01:09:41.860Z,10.38
2018-05-11T01:12:09.418Z,14.70
2018-05-11T01:14:37.434Z,13.57
2018-05-11T01:17:04.957Z,17.98
2018-05-11T01:19:32.736Z,11.82
2018-05-11T01:22:00.269Z,13.55
2018-05-11T01:24:27.804Z,10.40
2018-05-11T01:26:55.361Z,16.33
2018-05-11T01:29:22.882Z,13.65
2018-05-11T01:31:50.395Z,15.93
2018-05-11T01:34:18.196Z,15.15
2018-05-11T01:36:45.713Z,8.90
2018-05-11T01:39:13.229Z,17.87
2018-05-11T01:41:40.868Z,11.68
2018-05-11T01:44:08.604Z,12.52
2018-05-11T01:46:36.132Z,9.20
2018-05-11T01:49:03.785Z,15.40
2018-05-11T01:51:31.317Z,16.25
2018-05-11T01:53:58.841Z,12.48
2018-05-11T01:56:26.645Z,18.55
2018-05-11T01:58:54.169Z,13.02
2018-05-11T02:01:21.689Z,11.15
2018-05-11T02:03:49.630Z,10.15
2018-05-11T02:06:17.148Z,14.40
2018-05-11T02:08:44.692Z,11.12
2018-05-11T02:11:12.261Z,16.65
2018-05-11T02:13:39.813Z,16.70
2018-05-11T02:16:07.361Z,14.98
2018-05-11T02:18:35.166Z,10.70
2018-05-11T02:21:02.643Z,12.52
2018-05-11T02:23:30.153Z,7.57
2018-05-11T02:25:57.914Z,14.82
2018-05-11T02:28:25.437Z,12.88
2018-05-11T02:30:52.966Z,13.65
2018-05-11T02:33:20.866Z,16.12
2018-05-11T02:35:48.387Z,9.77
2018-05-11T02:38:15.906Z,15.65
2018-05-11T02:40:43.468Z,13.88
2018-05-11T02:43:11.000Z,14.57
2018-05-11T02:45:38.513Z,15.52
2018-05-11T02:48:06.518Z,14.10
2018-05-11T02:50:34.049Z,18.92
2018-05-11T02:53:01.573Z,13.30
2018-05-11T02:55:29.388Z,23.38
2018-05-11T02:57:56.912Z,11.65
2018-05-11T03:00:24.464Z,13.95
2018-05-11T03:02:52.052Z,12.75
2018-05-11T03:05:19.578Z,27.50
2018-05-11T03:07:47.331Z,16.12
2018-05-11T03:10:15.366Z,13.27
2018-05-11T03:12:43.273Z,14.95
2018-05-11T03:15:10.792Z,11.40
2018-05-11T03:17:38.664Z,12.32
2018-05-11T03:20:06.205Z,15.60
2018-05-11T03:22:33.724Z,10.50
2018-05-11T03:25:01.537Z,18.83
2018-05-11T03:27:29.071Z,11.45
2018-05-11T03:29:56.592Z,10.50
2018-05-11T03:32:24.316Z,12.07
2018-05-11T03:34:51.850Z,17.77
2018-05-11T03:37:19.373Z,11.00
2018-05-11T03:39:47.264Z,14.70
2018-05-11T03:42:14.792Z,14.30
2018-05-11T03:44:42.422Z,19.65
2018-05-11T03:47:10.392Z,16.52
2018-05-11T03:49:37.908Z,19.23
2018-05-11T03:52:05.431Z,12.57
2018-05-11T03:54:32.995Z,12.37
2018-05-11T03:57:00.518Z,13.48
2018-05-11T03:59:28.029Z,20.10
2018-05-11T04:02:07.524Z,12.13
2018-05-11T04:04:46.688Z,16.45
2018-05-11T04:07:26.081Z,21.75
2018-05-11T04:09:53.624Z,10.50
2018-05-11T04:12:21.146Z,17.83
2018-05-11T04:14:48.713Z,16.08
2018-05-11T04:17:16.236Z,21.87
2018-05-11T04:19:43.755Z,11.68
2018-05-11T04:22:11.760Z,14.80
2018-05-11T04:24:39.281Z,10.55
2018-05-11T04:27:06.811Z,15.65
2018-05-11T04:29:34.384Z,15.00
2018-05-11T04:32:01.901Z,11.45
2018-05-11T04:34:29.425Z,19.50
2018-05-11T04:36:56.981Z,15.13
2018-05-11T04:39:24.525Z,11.60
2018-05-11T04:41:52.060Z,12.05
2018-05-11T04:44:19.632Z,14.45
2018-05-11T04:46:47.195Z,13.27
2018-05-11T04:49:14.712Z,12.00
2018-05-11T04:51:42.700Z,13.95
2018-05-11T04:54:10.232Z,12.37
2018-05-11T04:56:37.744Z,16.17
2018-05-11T04:59:05.551Z,14.10
2018-05-11T05:01:33.065Z,14.70
2018-05-11T05:04:01.521Z,13.25
2018-05-11T05:06:29.073Z,16.08
2018-05-11T05:08:56.586Z,19.85
2018-05-11T05:11:24.110Z,13.10
2018-05-11T05:13:51.733Z,16.55
2018-05-11T05:16:19.253Z,14.57
2018-05-11T05:18:46.767Z,17.37
2018-05-11T05:21:14.516Z,10.38
2018-05-11T05:23:42.031Z,11.93
2018-05-11T05:26:09.549Z,15.32
2018-05-11T05:28:37.101Z,10.38
2018-05-11T05:31:04.622Z,9.95
2018-05-11T05:33:32.208Z,11.20
2018-05-11T05:35:59.768Z,19.87
2018-05-11T05:38:27.285Z,13.62
2018-05-11T05:40:54.830Z,13.73
2018-05-11T05:43:22.484Z,17.83
2018-05-11T05:45:50.042Z,16.35
2018-05-11T05:48:17.561Z,11.48
2018-05-11T05:50:45.121Z,12.90
2018-05-11T05:53:12.647Z,14.65
2018-05-11T05:55:40.190Z,12.15
2018-05-11T05:58:07.906Z,10.70
2018-05-11T06:00:35.427Z,16.13
2018-05-11T06:03:02.940Z,14.60
2018-05-11T06:05:30.785Z,13.47
2018-05-11T06:07:58.298Z,19.83
2018-05-11T06:10:25.810Z,10.60
2018-05-11T06:12:53.868Z,15.77
2018-05-11T06:15:21.380Z,10.00
2018-05-11T06:17:48.900Z,9.37
2018-05-11T06:20:16.653Z,11.43
2018-05-11T06:22:44.645Z,10.40
2018-05-11T06:25:12.182Z,8.90
2018-05-11T06:27:39.741Z,12.43
2018-05-11T06:30:07.304Z,13.43
2018-05-11T06:32:34.843Z,11.53
2018-05-11T06:35:02.521Z,14.37
2018-05-11T06:37:30.072Z,11.37
2018-05-11T06:39:57.622Z,13.63
2018-05-11T06:42:25.240Z,11.83
2018-05-11T06:44:52.780Z,8.00
2018-05-11T06:47:20.326Z,8.90
2018-05-11T06:49:47.872Z,9.53
2018-05-11T06:52:15.393Z,12.83
2018-05-11T06:54:42.917Z,7.53
2018-05-11T06:57:10.654Z,9.80
2018-05-11T06:59:38.169Z,7.53
2018-05-11T07:02:05.689Z,12.10
2018-05-11T07:04:33.236Z,8.27
2018-05-11T07:07:00.770Z,12.50
2018-05-11T07:09:28.297Z,13.20
2018-05-11T07:11:55.993Z,8.57
2018-05-11T07:14:23.525Z,15.53
2018-05-11T07:16:51.062Z,16.53
2018-05-11T07:19:18.826Z,19.17
2018-05-11T07:21:46.333Z,14.50
2018-05-11T07:24:13.876Z,12.90
2018-05-11T07:26:41.801Z,19.57
2018-05-11T07:29:09.362Z,24.07
2018-05-11T07:31:36.903Z,18.43
2018-05-11T07:34:04.807Z,19.30
2018-05-11T07:36:32.437Z,26.23
2018-05-11T07:39:00.002Z,22.00
2018-05-11T07:41:27.856Z,17.70
2018-05-11T07:43:55.374Z,18.10
2018-05-11T07:46:23.080Z,22.23
2018-05-11T07:48:50.746Z,32.17
2018-05-11T07:51:18.269Z,25.60
2018-05-11T07:53:45.822Z,22.37
2018-05-11T07:56:13.394Z,36.63
2018-05-11T07:58:40.935Z,29.27
2018-05-11T08:01:08.457Z,26.57
2018-05-11T08:03:36.421Z,30.50
2018-05-11T08:06:03.980Z,30.93
2018-05-11T08:08:31.582Z,30.37
2018-05-11T08:10:59.292Z,36.10
2018-05-11T08:13:26.832Z,30.60
2018-05-11T08:15:54.359Z,38.13
2018-05-11T08:18:22.091Z,43.30
2018-05-11T08:20:49.622Z,34.63
2018-05-11T08:23:17.245Z,46.17
2018-05-11T08:25:44.800Z,40.80
2018-05-11T08:28:12.311Z,36.27
2018-05-11T08:30:39.843Z,36.03
2018-05-11T08:33:07.441Z,35.93
2018-05-11T08:35:34.967Z,41.33
2018-05-11T08:38:02.508Z,42.23
2018-05-11T08:40:30.078Z,33.67
2018-05-11T08:42:57.665Z,34.73
2018-05-11T08:45:25.199Z,37.27
2018-05-11T08:47:52.757Z,32.47
2018-05-11T08:50:20.285Z,28.27
2018-05-11T08:52:47.833Z,31.60
2018-05-11T08:55:15.765Z,31.37
2018-05-11T08:57:43.297Z,43.40
2018-05-11T09:00:10.836Z,49.20
2018-05-11T09:02:38.554Z,38.17
2018-05-11T09:05:06.226Z,34.67
2018-05-11T09:07:33.887Z,42.90
2018-05-11T09:10:02.435Z,35.40
2018-05-11T09:12:30.302Z,39.27
2018-05-11T09:14:59.147Z,39.00
2018-05-11T09:17:26.882Z,39.40
2018-05-11T09:19:54.653Z,32.27
2018-05-11T09:22:22.316Z,36.60
2018-05-11T09:24:49.904Z,32.07
2018-05-11T09:27:17.446Z,30.87
2018-05-11T09:29:45.076Z,33.87
2018-05-11T09:32:12.654Z,31.77
2018-05-11T09:34:40.625Z,28.13
2018-05-11T09:37:08.168Z,34.13
2018-05-11T09:39:36.059Z,24.90
2018-05-11T09:42:03.502Z,31.00
2018-05-11T09:44:31.022Z,29.07
2018-05-11T09:46:58.573Z,26.13
2018-05-11T09:49:26.193Z,28.20
2018-05-11T09:51:53.675Z,23.20
2018-05-11T09:54:21.377Z,33.00
2018-05-11T09:56:48.901Z,26.23
2018-05-11T09:59:16.421Z,31.50
2018-05-11T10:01:44.201Z,25.10
2018-05-11T10:04:11.717Z,24.70
2018-05-11T10:06:39.248Z,24.37
2018-05-11T10:09:06.950Z,34.13
2018-05-11T10:11:34.482Z,24.67
2018-05-11T10:14:02.020Z,30.80
2018-05-11T10:16:29.748Z,23.40
2018-05-11T10:18:57.408Z,30.93
2018-05-11T10:21:25.037Z,22.90
2018-05-11T10:23:52.633Z,34.20
2018-05-11T10:26:20.180Z,27.40
2018-05-11T10:28:47.738Z,30.57
2018-05-11T10:31:15.596Z,26.57
2018-05-11T10:33:43.125Z,25.90
2018-05-11T10:36:10.649Z,26.77
2018-05-11T10:38:38.222Z,37.00
2018-05-11T10:41:05.761Z,34.77
2018-05-11T10:43:33.298Z,37.30
2018-05-11T10:46:01.153Z,28.30
2018-05-11T10:48:28.764Z,30.80
2018-05-11T10:50:56.341Z,29.70
2018-05-11T10:53:24.148Z,29.17
2018-05-11T10:55:51.728Z,31.77
2018-05-11T10:58:19.293Z,32.23
2018-05-11T11:00:47.025Z,30.43
2018-05-11T11:03:14.553Z,27.03
2018-05-11T11:05:42.076Z,26.07
2018-05-11T11:08:10.042Z,23.73
2018-05-11T11:10:37.561Z,25.40
2018-05-11T11:13:05.098Z,24.93
2018-05-11T11:15:32.663Z,20.03
2018-05-11T11:18:00.176Z,21.30
2018-05-11T11:20:27.693Z,23.03
2018-05-11T11:22:55.261Z,21.93
2018-05-11T11:25:22.853Z,25.03
2018-05-11T11:27:50.386Z,18.97
2018-05-11T11:30:17.946Z,29.70
2018-05-11T11:32:45.594Z,24.23
2018-05-11T11:35:13.200Z,26.50
2018-05-11T11:37:40.810Z,24.13
2018-05-11T11:40:08.329Z,18.37
2018-05-11T11:42:35.866Z,17.10
2018-05-11T11:45:03.431Z,19.43
2018-05-11T11:47:30.987Z,16.50
2018-05-11T11:49:58.518Z,23.63
2018-05-11T11:52:26.285Z,21.23
2018-05-11T11:54:53.822Z,26.47
2018-05-11T11:57:26.187Z,25.60
2018-05-11T11:59:53.993Z,24.97
2018-05-11T12:02:21.661Z,22.87
2018-05-11T12:04:51.633Z,18.67
2018-05-11T12:07:20.465Z,20.40
2018-05-11T12:09:48.105Z,25.30
2018-05-11T12:12:16.816Z,23.70
2018-05-11T12:14:45.705Z,19.57
2018-05-11T12:17:13.674Z,20.10
2018-05-11T12:19:42.108Z,17.93
2018-05-11T12:22:10.032Z,19.13
2018-05-11T12:24:38.095Z,28.53
2018-05-11T12:27:06.270Z,26.07
2018-05-11T12:29:34.446Z,23.23
2018-05-11T12:32:03.219Z,23.27
2018-05-11T12:34:31.200Z,16.53
2018-05-11T12:36:59.167Z,20.90
2018-05-11T12:39:28.689Z,21.20
2018-05-11T12:41:57.229Z,19.47
2018-05-11T12:44:25.717Z,18.23
2018-05-11T12:46:54.005Z,15.43
2018-05-11T12:49:21.878Z,17.67
2018-05-11T12:51:49.643Z,21.17
2018-05-11T12:54:17.197Z,19.40
2018-05-11T12:56:45.790Z,22.57
2018-05-11T12:59:13.653Z,26.33
2018-05-11T13:01:41.277Z,18.10
2018-05-11T13:04:09.649Z,19.20
2018-05-11T13:06:37.405Z,16.70
2018-05-11T13:09:05.225Z,18.50
2018-05-11T13:11:32.779Z,16.77
2018-05-11T13:14:00.529Z,20.63
2018-05-11T13:16:28.375Z,18.30
2018-05-11T13:18:56.389Z,20.10
2018-05-11T13:21:24.558Z,19.83
2018-05-11T13:23:52.421Z,19.13
2018-05-11T13:26:20.268Z,19.57
2018-05-11T13:28:48.147Z,20.77
2018-05-11T13:31:16.801Z,19.97
2018-05-11T13:33:44.544Z,20.67
2018-05-11T13:36:12.345Z,22.70
2018-05-11T13:38:40.540Z,19.07
2018-05-11T13:41:08.137Z,18.53
2018-05-11T13:43:36.171Z,15.63
2018-05-11T13:46:03.936Z,21.40
2018-05-11T13:48:31.515Z,27.47
2018-05-11T13:50:59.506Z,18.90
2018-05-11T13:53:27.047Z,23.03
2018-05-11T13:55:55.407Z,19.57
2018-05-11T13:58:25.147Z,28.13
2018-05-11T14:00:53.387Z,19.60
2018-05-11T14:03:21.741Z,23.50
2018-05-11T14:05:49.855Z,21.47
2018-05-11T14:08:19.654Z,25.63
2018-05-11T14:10:47.311Z,23.70
2018-05-11T14:13:15.301Z,24.40
2018-05-11T14:15:42.868Z,24.23
2018-05-11T14:18:10.454Z,25.73
2018-05-11T14:20:40.416Z,26.63
2018-05-11T14:23:08.372Z,17.33
2018-05-11T14:25:36.252Z,27.47
2018-05-11T14:28:04.213Z,19.63
2018-05-11T14:30:32.495Z,25.10
2018-05-11T14:33:00.034Z,23.50
2018-05-11T14:35:27.649Z,26.20
2018-05-11T14:37:56.282Z,26.10
2018-05-11T14:40:24.578Z,23.53
2018-05-11T14:42:53.392Z,21.50
2018-05-11T14:45:21.949Z,23.10
2018-05-11T14:47:52.473Z,24.47
2018-05-11T14:50:20.244Z,27.90
2018-05-11T14:52:47.770Z,26.03
2018-05-11T14:55:18.464Z,27.30
2018-05-11T14:57:46.144Z,21.10
2018-05-11T15:00:13.856Z,21.00
2018-05-11T15:02:41.864Z,20.30
2018-05-11T15:05:09.672Z,28.13
2018-05-11T15:07:37.201Z,22.10
2018-05-11T15:10:05.010Z,20.90
2018-05-11T15:12:32.661Z,26.40
2018-05-11T15:15:02.085Z,21.07
2018-05-11T15:17:30.842Z,22.43
2018-05-11T15:19:58.840Z,22.50
2018-05-11T15:22:27.630Z,19.43
2018-05-11T15:24:55.392Z,21.23
2018-05-11T15:27:23.286Z,23.50
2018-05-11T15:29:53.078Z,18.40
2018-05-11T15:32:22.155Z,22.83
2018-05-11T15:34:51.805Z,24.17
2018-05-11T15:37:19.922Z,25.73
2018-05-11T15:39:47.473Z,19.07
2018-05-11T15:42:15.687Z,24.03
2018-05-11T15:44:43.228Z,23.57
2018-05-11T15:47:10.817Z,23.40
2018-05-11T15:49:39.825Z,24.13
2018-05-11T15:52:07.367Z,26.97
2018-05-11T15:54:34.933Z,23.13
2018-05-11T15:57:02.562Z,26.30
2018-05-11T15:59:30.103Z,22.57
2018-05-11T16:01:57.633Z,31.33
2018-05-11T16:04:25.528Z,24.93
2018-05-11T16:06:53.121Z,25.10
2018-05-11T16:09:20.892Z,28.23
2018-05-11T16:11:48.460Z,19.63
2018-05-11T16:14:16.622Z,25.20
2018-05-11T16:16:45.016Z,25.17
2018-05-11T16:19:12.730Z,21.87
2018-05-11T16:21:40.261Z,24.20
2018-05-11T16:24:07.781Z,24.87
2018-05-11T16:26:35.616Z,18.10
2018-05-11T16:29:03.198Z,24.60
2018-05-11T16:31:30.740Z,25.13
2018-05-11T16:33:58.510Z,25.47
2018-05-11T16:36:26.051Z,30.47
2018-05-11T16:38:53.574Z,20.87
2018-05-11T16:41:21.294Z,22.63
2018-05-11T16:43:49.031Z,22.97
2018-05-11T16:46:16.935Z,20.10
2018-05-11T16:48:44.495Z,25.77
2018-05-11T16:51:12.117Z,26.67
2018-05-11T16:53:39.589Z,28.50
2018-05-11T16:56:08.298Z,27.30
2018-05-11T16:58:35.820Z,35.20
2018-05-11T17:01:03.340Z,25.33
2018-05-11T17:03:31.061Z,26.40
2018-05-11T17:05:58.640Z,25.50
2018-05-11T17:08:26.170Z,23.17
2018-05-11T17:10:53.749Z,28.97
2018-05-11T17:13:21.274Z,34.60
2018-05-11T17:15:48.802Z,31.60
2018-05-11T17:18:16.359Z,31.40
2018-05-11T17:20:43.885Z,31.27
2018-05-11T17:23:11.414Z,23.40
2018-05-11T17:25:39.088Z,23.33
2018-05-11T17:28:07.024Z,23.37
2018-05-11T17:30:34.549Z,34.90
2018-05-11T17:33:02.105Z,24.27
2018-05-11T17:35:29.657Z,23.90
2018-05-11T17:37:58.143Z,24.60
2018-05-11T17:40:25.774Z,28.10
2018-05-11T17:42:53.413Z,22.10
2018-05-11T17:45:21.135Z,36.03
2018-05-11T17:47:48.726Z,30.93
2018-05-11T17:50:16.449Z,34.00
2018-05-11T17:52:43.992Z,27.47
2018-05-11T17:55:11.789Z,27.70
2018-05-11T17:57:39.319Z,33.77
2018-05-11T18:00:06.845Z,29.97
2018-05-11T18:02:34.637Z,32.60
2018-05-11T18:05:02.177Z,29.87
2018-05-11T18:07:29.705Z,35.00
2018-05-11T18:09:57.418Z,34.17
2018-05-11T18:12:25.172Z,38.57
2018-05-11T18:14:52.689Z,35.10
2018-05-11T18:17:20.319Z,41.60
2018-05-11T18:19:47.876Z,33.27
2018-05-11T18:22:15.403Z,29.53
2018-05-11T18:24:43.184Z,31.67
2018-05-11T18:27:10.700Z,50.13
2018-05-11T18:29:38.224Z,33.77
2018-05-11T18:32:06.290Z,34.27
2018-05-11T18:34:33.824Z,35.97
2018-05-11T18:37:01.380Z,34.77
2018-05-11T18:39:29.161Z,38.30
2018-05-11T18:41:57.243Z,37.83
2018-05-11T18:44:25.091Z,30.17
2018-05-11T18:46:52.953Z,35.90
2018-05-11T18:51:54.854Z,40.03
2018-05-11T18:54:22.808Z,34.57
2018-05-11T18:56:50.382Z,32.50
2018-05-11T18:59:18.448Z,30.87
2018-05-11T19:01:46.384Z,32.17
2018-05-11T19:04:13.913Z,30.83
2018-05-11T19:06:42.256Z,29.73
2018-05-11T19:09:10.200Z,37.50
2018-05-11T19:11:38.094Z,29.60
2018-05-11T19:14:06.575Z,27.07
2018-05-11T19:16:34.734Z,37.70
2018-05-11T19:19:02.409Z,24.90
2018-05-11T19:21:30.496Z,31.20
2018-05-11T19:23:58.248Z,28.13
2018-05-11T19:26:25.805Z,28.20
2018-05-11T19:28:53.750Z,28.80
2018-05-11T19:31:21.305Z,40.03
2018-05-11T19:33:49.099Z,33.70
2018-05-11T19:36:16.811Z,31.33
2018-05-11T19:38:44.627Z,42.17
2018-05-11T19:41:12.287Z,27.77
2018-05-11T19:43:42.000Z,25.30
2018-05-11T19:46:10.090Z,31.87
2018-05-11T19:48:37.700Z,30.33
2018-05-11T19:51:06.792Z,30.87
2018-05-11T19:53:34.466Z,28.13
2018-05-11T19:56:02.160Z,28.97
2018-05-11T19:58:29.958Z,31.63
2018-05-11T20:00:57.781Z,32.80
2018-05-11T20:03:25.545Z,27.10
2018-05-11T20:05:54.846Z,29.77
2018-05-11T20:08:22.814Z,30.53
2018-05-11T20:10:50.757Z,26.03
2018-05-11T20:13:18.854Z,31.27
2018-05-11T20:15:50.819Z,26.23
2018-05-11T20:18:18.819Z,29.90
2018-05-11T20:20:46.564Z,25.40
2018-05-11T20:23:14.413Z,36.47
2018-05-11T20:25:42.487Z,28.13
2018-05-11T20:28:10.203Z,32.70
2018-05-11T20:30:38.017Z,34.80
2018-05-11T20:33:05.890Z,30.53
2018-05-11T20:35:33.630Z,26.83
2018-05-11T20:38:01.964Z,37.23
2018-05-11T20:40:29.972Z,31.40
2018-05-11T20:42:58.163Z,34.17
2018-05-11T20:45:26.036Z,32.27
2018-05-11T20:47:54.208Z,28.60
2018-05-11T20:50:22.283Z,29.53
2018-05-11T20:52:50.149Z,37.83
2018-05-11T20:55:18.543Z,41.13
2018-05-11T20:57:46.403Z,34.27
2018-05-11T21:00:15.401Z,34.00
2018-05-11T21:02:43.973Z,36.60
2018-05-11T21:05:11.733Z,29.57
2018-05-11T21:07:39.721Z,32.40
2018-05-11T21:10:08.311Z,33.90
2018-05-11T21:12:36.581Z,31.27
2018-05-11T21:15:04.640Z,34.63
2018-05-11T21:17:33.421Z,33.17
2018-05-11T21:20:01.588Z,42.70
2018-05-11T21:22:29.900Z,34.87
2018-05-11T21:24:57.739Z,30.60
2018-05-11T21:27:25.604Z,31.87
2018-05-11T21:29:53.149Z,27.70
2018-05-11T21:32:22.288Z,32.20
2018-05-11T21:34:49.921Z,31.33
2018-05-11T21:37:17.584Z,31.77
2018-05-11T21:39:45.756Z,26.37
2018-05-11T21:42:13.292Z,54.83
2018-05-11T21:44:40.820Z,30.83
2018-05-11T21:47:08.377Z,29.23
2018-05-11T21:49:36.073Z,27.93
2018-05-11T21:52:04.192Z,34.17
2018-05-11T21:54:31.931Z,30.80
2018-05-11T21:56:59.557Z,33.20
2018-05-11T21:59:27.116Z,33.57
2018-05-11T22:01:54.797Z,31.43
2018-05-11T22:04:22.478Z,30.03
2018-05-11T22:06:50.011Z,31.53
2018-05-11T22:09:17.602Z,31.87
2018-05-11T22:11:45.282Z,34.63
2018-05-11T22:14:12.919Z,29.27
2018-05-11T22:16:40.632Z,29.40
2018-05-11T22:19:08.242Z,38.00
2018-05-11T22:21:35.834Z,32.83
2018-05-11T22:24:05.502Z,33.83
2018-05-11T22:26:33.094Z,26.10
2018-05-11T22:29:00.620Z,34.13
2018-05-11T22:31:28.394Z,38.53
2018-05-11T22:33:55.913Z,35.30
2018-05-11T22:36:23.457Z,33.90
2018-05-11T22:38:51.153Z,32.73
2018-05-11T22:41:18.718Z,25.43
2018-05-11T22:43:46.397Z,25.60
2018-05-11T22:46:14.954Z,27.87
2018-05-11T22:48:42.544Z,33.50
2018-05-11T22:51:10.904Z,40.23
2018-05-11T22:53:38.793Z,34.50
2018-05-11T22:56:07.105Z,30.97
2018-05-11T22:58:34.825Z,34.33
2018-05-11T23:01:02.568Z,34.20
2018-05-11T23:03:30.080Z,37.07
2018-05-11T23:05:58.016Z,30.37
2018-05-11T23:08:25.760Z,34.40
2018-05-11T23:10:53.277Z,30.57
2018-05-11T23:13:20.793Z,37.37
2018-05-11T23:15:48.593Z,30.20
2018-05-11T23:18:16.121Z,37.27
2018-05-11T23:20:43.642Z,32.10
2018-05-11T23:23:11.348Z,44.57
2018-05-11T23:25:38.870Z,43.47
2018-05-11T23:28:07.789Z,36.80
2018-05-11T23:30:35.728Z,43.10
2018-05-11T23:33:03.251Z,46.93
2018-05-11T23:35:30.778Z,49.60
2018-05-11T23:37:58.336Z,49.73
2018-05-11T23:40:25.868Z,41.03
2018-05-11T23:42:53.385Z,50.50
2018-05-11T23:45:20.941Z,40.83
2018-05-11T23:47:48.461Z,51.77
2018-05-11T23:50:16.727Z,37.30
2018-05-11T23:52:45.226Z,46.90
2018-05-11T23:55:12.747Z,41.03
2018-05-11T23:57:40.276Z,48.83
